• Join FlightAware (Why Join?)
  • Login
  • US Flag 
 
07:39AM EST


 

Airport Tracker/Info


-or-


 

Live Flight TrackerFlight Track Log ✈ SWA2975 ✈ 08-Jul-2013 ✈ KMDW - KALB

Flight Track Log - Related Links

Times and Time Zones

All times are in EDT time to prevent confusion due to time zone crossing. See the SWA2975 flight status page for this flight to view local times or setup timezone preferences in your user account.

Time Position Orientation Groundspeed Altitude Reporting Facility
EDT Latitude Longitude Course Direction KTS MPH feet Rate Location/Type
11:12PM 41.7680 -87.7780 243° Southwest 155 178 2,100  Level FlightAware
11:13PM 41.7600 -87.8000 244° Southwest 192 221 2,300 720 Climbing FlightAware
11:13PM 41.7500 -87.8280 244° Southwest 215 247 2,700 1,920 Climbing FlightAware
11:14PM 41.7410 -87.8650 252° West 229 264 4,000 2,940 Climbing FlightAware
11:14PM 41.7380 -87.9050 264° West 234 269 5,500 3,120 Climbing FlightAware
11:15PM 41.7350 -87.9440 264° West 232 267 7,000 3,300 Climbing FlightAware
11:15PM 41.7330 -87.9760 265° West 233 268 8,200 3,120 Climbing FlightAware
11:15PM 41.7330 -87.9980 270° West 232 267 8,900 3,000 Climbing FlightAware
11:15PM 41.7400 -88.0130 302° West 234 269 9,600 3,000 Climbing FlightAware
11:16PM 41.7560 -88.0230 335° Northwest 242 278 10,300 2,280 Climbing FlightAware
11:16PM 41.8000 -88.0290 354° North 273 314 11,700 2,220 Climbing FlightAware
11:17PM 41.8590 -88.0280 North 298 343 13,400 2,400 Climbing FlightAware
11:18PM 41.9400 -88.0280 360° North 313 360 15,800 2,520 Climbing FlightAware
11:19PM 42.0020 -88.0270 North 321 369 17,600 2,220 Climbing FlightAware
11:20PM 42.0680 -88.0270 360° North 338 389 19,000 1,860 Climbing FlightAware
11:20PM 42.1190 -88.0270 360° North 353 406 20,000 1,740 Climbing FlightAware
11:21PM 42.1920 -88.0270 360° North 369 425 21,300 1,740 Climbing FlightAware
11:21PM 42.2620 -88.0280 359° North 381 438 22,500 1,800 Climbing FlightAware
11:22PM 42.3050 -88.0240 North 389 448 23,200 1,620 Climbing FlightAware
11:22PM 42.3250 -88.0100 27° Northeast 397 457 23,500 1,500 Climbing FlightAware
11:22PM 42.3410 -87.9900 43° Northeast 404 465 23,800 1,620 Climbing FlightAware
11:23PM 42.3940 -87.9050 50° Northeast 416 479 25,000 1,380 Climbing FlightAware
11:23PM 42.4200 -87.8330 64° Northeast 436 502 25,500 1,080 Climbing FlightAware
11:24PM 42.4290 -87.7380 83° East 452 520 26,200 1,140 Climbing FlightAware
11:25PM 42.4380 -87.6310 83° East 465 535 26,900 1,020 Climbing FlightAware
11:25PM 42.4490 -87.4950 84° East 479 551 27,700 1,020 Climbing FlightAware
11:26PM 42.4590 -87.3710 84° East 489 563 28,400 1,020 Climbing FlightAware
11:27PM 42.4700 -87.2350 84° East 499 574 29,200 1,020 Climbing FlightAware
11:28PM 42.4800 -87.1080 84° East 507 583 29,900 1,380 Climbing FlightAware
11:28PM 42.4900 -86.9800 84° East 502 578 31,100 1,500 Climbing FlightAware
11:29PM 42.4990 -86.8580 84° East 503 579 31,900 1,320 Climbing FlightAware
11:29PM 42.5080 -86.7440 84° East 501 577 32,800 1,440 Climbing FlightAware
11:30PM 42.5180 -86.6170 84° East 497 572 33,800 1,320 Climbing FlightAware
11:31PM 42.5270 -86.4870 85° East 495 570 34,700 840 Climbing FlightAware
11:32PM 42.5370 -86.3510 84° East 495 570 35,000 180 Climbing FlightAware
11:32PM 42.5460 -86.2240 84° East 495 570 35,000  Level FlightAware
11:33PM 42.5550 -86.0910 85° East 495 570 35,000  Level FlightAware
11:34PM 42.5630 -85.9770 85° East 496 571 35,000  Level FlightAware
11:34PM 42.5710 -85.8590 85° East 496 571 35,000  Level FlightAware
11:35PM 42.5800 -85.7220 85° East 496 571 35,000  Level FlightAware
11:36PM 42.5880 -85.6010 85° East 498 573 35,000  Level FlightAware
11:36PM 42.5960 -85.4830 85° East 499 574 35,000  Level FlightAware
11:37PM 42.6040 -85.3550 85° East 500 575 35,000  Level FlightAware
11:38PM 42.6130 -85.2160 85° East 501 577 35,000  Level FlightAware
11:38PM 42.6180 -85.1220 86° East 501 577 35,000  Level FlightAware
11:39PM 42.6270 -84.9830 85° East 501 577 35,000  Level FlightAware
11:40PM 42.6350 -84.8470 85° East 501 577 35,000  Level FlightAware
11:40PM 42.6410 -84.7330 86° East 501 577 35,000  Level FlightAware
11:41PM 42.6490 -84.6020 85° East 500 575 35,000  Level FlightAware
11:42PM 42.6560 -84.4720 86° East 500 575 35,000  Level FlightAware
11:42PM 42.6630 -84.3390 86° East 500 575 35,000  Level FlightAware
11:43PM 42.6700 -84.2130 86° East 500 575 35,000  Level FlightAware
11:44PM 42.6760 -84.0900 86° East 500 575 35,000  Level FlightAware
11:44PM 42.6830 -83.9540 86° East 499 574 35,000  Level FlightAware
11:46PM 42.6930 -83.7510 86° East 499 574 35,000  Level FlightAware
11:46PM 42.6990 -83.6270 86° East 495 570 35,000  Level FlightAware
11:47PM 42.7050 -83.4960 86° East 489 563 35,000  Level FlightAware
11:47PM 42.7100 -83.3860 86° East 488 562 35,000  Level FlightAware
11:48PM 42.7160 -83.2630 86° East 487 560 35,000  Level FlightAware
11:49PM 42.7220 -83.1250 87° East 485 558 35,000  Level FlightAware
11:50PM 42.7270 -83.0020 87° East 483 556 35,000  Level FlightAware
11:50PM 42.7330 -82.8720 86° East 482 555 35,000  Level FlightAware
11:51PM 42.7380 -82.7490 87° East 482 555 35,000  Level FlightAware
11:52PM 42.7430 -82.6140 87° East 483 556 35,000  Level FlightAware
11:52PM 42.7470 -82.5050 87° East 485 558 35,000  Level FlightAware
11:53PM 42.7520 -82.3870 87° East 485 558 35,000  Level FlightAware
11:54PM 42.7560 -82.2600 88° East 485 558 35,000  Level FlightAware
11:54PM 42.7600 -82.1500 87° East 485 558 35,000  Level FlightAware
11:55PM 42.7660 -81.9920 87° East 485 558 35,000  Level FlightAware
11:56PM 42.7700 -81.8600 88° East 486 559 35,000  Level FlightAware
11:57PM 42.7730 -81.7480 88° East 487 560 35,000  Level FlightAware
11:57PM 42.7770 -81.6220 87° East 486 559 35,000  Level FlightAware
11:58PM 42.7810 -81.4960 87° East 485 558 35,000  Level FlightAware
11:59PM 42.7850 -81.3700 87° East 486 559 35,000  Level FlightAware
11:59PM 42.7870 -81.2790 88° East 487 560 35,000  Level FlightAware
12:00AM 42.7910 -81.1420 88° East 491 565 35,000  Level FlightAware
12:01AM 42.7940 -80.9980 88° East 493 567 35,000  Level FlightAware
12:01AM 42.7970 -80.8930 88° East 495 570 35,000  Level FlightAware
12:02AM 42.8010 -80.7290 88° East 496 571 35,000  Level FlightAware
12:03AM 42.8040 -80.6010 88° East 497 572 35,000  Level FlightAware
12:03AM 42.8060 -80.4960 88° East 497 572 35,000  Level FlightAware
12:04AM 42.8090 -80.3440 88° East 496 571 35,000  Level FlightAware
12:05AM 42.8110 -80.2200 89° East 497 572 35,000  Level FlightAware
12:06AM 42.8130 -80.0830 89° East 496 571 35,000  Level FlightAware
12:06AM 42.8150 -79.9640 89° East 496 571 35,000  Level FlightAware
12:07AM 42.8170 -79.8380 89° East 496 571 35,000  Level FlightAware
12:08AM 42.8190 -79.6910 89° East 496 571 35,000  Level FlightAware
12:08AM 42.8210 -79.5770 89° East 495 570 35,000  Level FlightAware
12:09AM 42.8230 -79.4340 89° East 496 571 35,000  Level FlightAware
12:10AM 42.8240 -79.2940 89° East 497 572 35,000  Level FlightAware
12:10AM 42.8250 -79.1900 89° East 497 572 35,000  Level FlightAware
12:11AM 42.8260 -79.0420 89° East 496 571 35,000  Level FlightAware
12:12AM 42.8270 -78.9010 89° East 496 571 35,000  Level FlightAware
12:12AM 42.8280 -78.7770 89° East 496 571 35,000  Level FlightAware
12:13AM 42.8290 -78.6620 89° East 496 571 35,000  Level FlightAware
12:14AM 42.8290 -78.5320 90° East 495 570 35,000  Level FlightAware
12:14AM 42.8290 -78.4040 90° East 494 568 35,000  Level FlightAware
12:16AM 42.8300 -78.1590 90° East 497 572 35,000  Level FlightAware
12:17AM 42.8270 -78.0180 92° East 497 572 35,000 -480 Level FlightAware
12:17AM 42.8250 -77.9320 92° East 496 571 34,400 -1,080 Descending FlightAware
12:18AM 42.8190 -77.7090 92° East 494 568 33,300 -1,080 Descending FlightAware
12:19AM 42.8160 -77.5870 92° East 491 565 32,700 -960 Descending FlightAware
12:20AM 42.8130 -77.4510 92° East 490 564 32,000 -960 Descending FlightAware
12:20AM 42.8090 -77.3280 92° East 491 565 31,400 -1,020 Descending FlightAware
12:21AM 42.8050 -77.1840 92° East 492 566 30,600 -1,020 Descending FlightAware
12:22AM 42.8010 -77.0600 92° East 495 570 30,000 -960 Descending FlightAware
12:22AM 42.7970 -76.9250 92° East 497 572 29,300 -720 Descending FlightAware
12:23AM 42.7930 -76.8000 92° East 494 568 29,000 -240 Descending FlightAware
12:24AM 42.7890 -76.6630 92° East 493 567 29,000  Level FlightAware
12:24AM 42.7840 -76.5410 93° East 491 565 29,000  Level FlightAware
12:25AM 42.7800 -76.4180 92° East 489 563 29,000  Level FlightAware
12:26AM 42.7750 -76.2840 93° East 486 559 29,000  Level FlightAware
12:27AM 42.7710 -76.1610 92° East 484 557 29,000  Level FlightAware
12:27AM 42.7650 -76.0260 93° East 482 555 29,000  Level FlightAware
12:28AM 42.7610 -75.9200 93° East 482 555 29,000  Level FlightAware
12:29AM 42.7560 -75.7930 93° East 482 555 29,000 -1,200 Level FlightAware
12:29AM 42.7500 -75.6710 94° East 485 558 27,400 -2,640 Descending FlightAware
12:30AM 42.7450 -75.5480 93° East 490 564 25,500 -2,880 Descending FlightAware
12:31AM 42.7400 -75.4240 93° East 474 545 23,600 -2,820 Descending FlightAware
12:31AM 42.7350 -75.3100 93° East 459 528 21,800 -2,640 Descending FlightAware
12:32AM 42.7300 -75.1970 93° East 444 511 20,100 -2,580 Descending FlightAware
12:32AM 42.7250 -75.0980 94° East 429 494 18,600 -2,520 Descending FlightAware
12:33AM 42.7190 -74.9840 94° East 416 479 16,800 -2,460 Descending FlightAware
12:34AM 42.7140 -74.8830 94° East 405 466 15,200 -1,740 Descending FlightAware
12:35AM 42.7100 -74.7840 93° East 402 463 14,500 -540 Descending FlightAware
12:35AM 42.7070 -74.7020 93° East 402 463 14,500  Level FlightAware
12:36AM 42.7030 -74.5970 93° East 402 463 14,500 -2,280 Level FlightAware
12:37AM 42.6906 -74.4767 93° East 361 415 11,000 -2,280 Descending Boston Center
12:38AM 42.6908 -74.3411 90° East 298 343 10,300 -1,080 Descending Boston Center
12:39AM 42.7281 -74.2406 63° Northeast 293 337 8,800 -1,500 Descending Boston Center
12:40AM 42.7689 -74.1456 60° Northeast 290 334 7,300 -1,680 Descending Boston Center
12:41AM 42.8142 -74.0561 55° Northeast 282 325 5,500 -1,620 Descending Boston Center
12:42AM 42.8550 -73.9694 57° Northeast 275 316 4,100 -1,380 Descending Boston Center
12:43AM 42.8936 -73.8856 58° Northeast 252 290 2,800 -1,080 Descending Boston Center
12:44AM 42.8756 -73.8169 110° East 208 239 2,000 -540 Descending Boston Center
12:45AM 42.8278 -73.8103 174° South 154 177 1,800 -600 Descending Boston Center
12:46AM 42.7819 -73.8092 179° South 144 166 800 -1,020 Descending Boston Center